createdAt,value
2018-01-06T00:00:25.622Z,87.1
2018-01-06T00:01:06.210Z,87.1
2018-01-06T00:01:46.815Z,87.01
2018-01-06T00:02:27.401Z,87.1
2018-01-06T00:03:07.972Z,86.91
2018-01-06T00:03:48.563Z,87.1
2018-01-06T00:04:29.173Z,87.19
2018-01-06T00:05:09.760Z,87.01
2018-01-06T00:05:50.339Z,87.19
2018-01-06T00:06:30.941Z,87.01
2018-01-06T00:07:11.547Z,87.1
2018-01-06T00:07:52.120Z,87.29
2018-01-06T00:08:32.688Z,87.38
2018-01-06T00:09:13.272Z,86.53
2018-01-06T00:09:53.836Z,87.01
2018-01-06T00:10:34.409Z,87.01
2018-01-06T00:11:15.014Z,86.72
2018-01-06T00:11:55.577Z,86.63
2018-01-06T00:12:36.141Z,87.29
2018-01-06T00:13:16.726Z,87.01
2018-01-06T00:13:57.301Z,87.1
2018-01-06T00:14:37.915Z,87.1
2018-01-06T00:15:18.502Z,86.72
2018-01-06T00:15:59.079Z,87.19
2018-01-06T00:16:39.656Z,87.1
2018-01-06T00:17:20.219Z,87.1
2018-01-06T00:18:00.817Z,87.19
2018-01-06T00:18:41.383Z,87.1
2018-01-06T00:19:21.953Z,87.57
2018-01-06T00:20:02.589Z,87.38
2018-01-06T00:20:43.186Z,87.67
2018-01-06T00:21:23.755Z,87.38
2018-01-06T00:22:04.322Z,87.38
2018-01-06T00:22:44.907Z,87.29
2018-01-06T00:23:25.489Z,87.48
2018-01-06T00:24:06.124Z,87.57
2018-01-06T00:24:46.707Z,87.48
2018-01-06T00:25:27.377Z,87.86
2018-01-06T00:26:07.941Z,87.76
2018-01-06T00:26:48.518Z,87.67
2018-01-06T00:27:29.093Z,87.76
2018-01-06T00:28:09.660Z,87.86
2018-01-06T00:28:50.242Z,88.05
2018-01-06T00:29:30.807Z,87.76
2018-01-06T00:30:11.356Z,88.15
2018-01-06T00:30:51.936Z,88.24
2018-01-06T00:31:32.495Z,87.95
2018-01-06T00:32:13.076Z,88.05
2018-01-06T00:32:53.674Z,88.05
2018-01-06T00:33:34.235Z,88.71
2018-01-06T00:34:14.865Z,88.34
2018-01-06T00:34:55.471Z,88.24
2018-01-06T00:35:36.042Z,88.24
2018-01-06T00:36:16.607Z,88.43
2018-01-06T00:36:57.181Z,88.53
2018-01-06T00:37:37.769Z,88.53
2018-01-06T00:38:18.333Z,88.81
2018-01-06T00:38:58.888Z,88.62
2018-01-06T00:39:39.476Z,88.62
2018-01-06T00:40:20.041Z,88.9
2018-01-06T00:41:00.587Z,88.43
2018-01-06T00:41:41.241Z,88.81
2018-01-06T00:42:21.801Z,88.24
2018-01-06T00:43:02.364Z,88.53
2018-01-06T00:43:42.957Z,88.43
2018-01-06T00:44:23.541Z,88.53
2018-01-06T00:45:04.098Z,88.43
2018-01-06T00:45:44.671Z,88.71
2018-01-06T00:46:25.246Z,88.62
2018-01-06T00:47:05.812Z,88.62
2018-01-06T00:47:46.382Z,88.62
2018-01-06T00:48:26.952Z,88.24
2018-01-06T00:49:07.508Z,88.43
2018-01-06T00:49:48.076Z,88.43
2018-01-06T00:50:28.632Z,88.24
2018-01-06T00:51:09.232Z,88.24
2018-01-06T00:51:49.799Z,88.24
2018-01-06T00:52:30.366Z,88.43
2018-01-06T00:53:10.924Z,88.9
2018-01-06T00:53:51.524Z,88.62
2018-01-06T00:54:32.108Z,89
2018-01-06T00:55:12.706Z,88.62
2018-01-06T00:55:53.275Z,88.43
2018-01-06T00:56:33.846Z,88.62
2018-01-06T00:57:14.417Z,88.43
2018-01-06T00:57:54.988Z,88.34
2018-01-06T00:58:35.597Z,88.43
2018-01-06T00:59:16.170Z,88.05
2018-01-06T00:59:56.753Z,88.53
2018-01-06T01:00:37.335Z,88.24
2018-01-06T01:01:17.926Z,88.62
2018-01-06T01:01:58.516Z,88.43
2018-01-06T01:02:39.147Z,89.09
2018-01-06T01:03:19.745Z,88.24
2018-01-06T01:04:00.344Z,88.81
2018-01-06T01:04:40.909Z,88.53
2018-01-06T01:05:21.518Z,88.62
2018-01-06T01:06:02.108Z,88.9
2018-01-06T01:06:42.677Z,88.81
2018-01-06T01:07:23.260Z,88.71
2018-01-06T01:08:03.839Z,89.19
2018-01-06T01:08:44.403Z,89.28
2018-01-06T01:09:25.011Z,89.09
2018-01-06T01:10:05.577Z,89.24
2018-01-06T01:10:46.191Z,89.33
2018-01-06T01:11:26.708Z,89.24
2018-01-06T01:12:07.272Z,89.33
2018-01-06T01:12:47.842Z,89.53
2018-01-06T01:13:28.430Z,89.76
2018-01-06T01:14:08.991Z,89.53
2018-01-06T01:14:49.586Z,89.43
2018-01-06T01:15:30.164Z,89.47
2018-01-06T01:16:10.733Z,89.38
2018-01-06T01:16:51.324Z,89.86
2018-01-06T01:17:31.892Z,89.76
2018-01-06T01:18:12.479Z,89.67
2018-01-06T01:18:53.096Z,89.57
2018-01-06T01:19:33.670Z,89.67
2018-01-06T01:20:14.247Z,89.38
2018-01-06T01:20:54.811Z,89.19
2018-01-06T01:21:35.400Z,88.9
2018-01-06T01:22:16.001Z,89.19
2018-01-06T01:22:56.568Z,89.19
2018-01-06T01:23:37.149Z,89.09
2018-01-06T01:24:17.733Z,89
2018-01-06T01:24:58.300Z,89.09
2018-01-06T01:25:38.858Z,89.38
2018-01-06T01:26:19.469Z,89.19
2018-01-06T01:27:00.054Z,89.19
2018-01-06T01:27:40.633Z,89.38
2018-01-06T01:28:21.211Z,89.09
2018-01-06T01:29:01.782Z,88.9
2018-01-06T01:29:42.343Z,89.19
2018-01-06T01:30:22.892Z,89.19
2018-01-06T01:31:03.452Z,89.28
2018-01-06T01:31:44.026Z,89.09
2018-01-06T01:32:24.598Z,89.28
2018-01-06T01:33:05.175Z,89.28
2018-01-06T01:33:45.740Z,89.38
2018-01-06T01:34:26.325Z,89.57
2018-01-06T01:35:06.926Z,89.28
2018-01-06T01:35:47.488Z,89.28
2018-01-06T01:36:28.056Z,89
2018-01-06T01:37:08.634Z,89
2018-01-06T01:37:49.212Z,89.38
2018-01-06T01:38:29.802Z,89.09
2018-01-06T01:39:10.415Z,89.19
2018-01-06T01:39:51.011Z,89.38
2018-01-06T01:40:31.590Z,89.28
2018-01-06T01:41:12.185Z,88.71
2018-01-06T01:41:52.761Z,89.47
2018-01-06T01:42:33.317Z,89.47
2018-01-06T01:43:13.892Z,89.38
2018-01-06T01:43:54.468Z,88.9
2018-01-06T01:44:35.048Z,88.9
2018-01-06T01:45:15.610Z,88.9
2018-01-06T01:45:56.181Z,89
2018-01-06T01:46:36.744Z,88.71
2018-01-06T01:47:17.326Z,88.9
2018-01-06T01:47:57.897Z,89
2018-01-06T01:48:38.478Z,88.62
2018-01-06T01:49:19.055Z,89.09
2018-01-06T01:49:59.627Z,88.9
2018-01-06T01:50:40.186Z,88.9
2018-01-06T01:51:20.751Z,88.9
2018-01-06T01:52:01.336Z,89.09
2018-01-06T01:52:41.937Z,89
2018-01-06T01:53:22.509Z,88.9
2018-01-06T01:54:03.097Z,88.9
2018-01-06T01:54:46.461Z,89
2018-01-06T01:55:27.036Z,88.9
2018-01-06T01:56:07.612Z,88.71
2018-01-06T01:56:48.170Z,88.62
2018-01-06T01:57:28.727Z,88.71
2018-01-06T01:58:09.310Z,89
2018-01-06T01:58:49.842Z,89.09
2018-01-06T01:59:30.403Z,89
2018-01-06T02:00:10.965Z,88.24
2018-01-06T02:00:51.527Z,88.43
2018-01-06T02:01:32.087Z,89
2018-01-06T02:02:12.664Z,88.81
2018-01-06T02:02:53.234Z,88.81
2018-01-06T02:03:33.823Z,88.81
2018-01-06T02:04:14.382Z,88.81
2018-01-06T02:04:54.949Z,88.9
2018-01-06T02:05:35.521Z,88.81
2018-01-06T02:06:16.090Z,88.9
2018-01-06T02:06:56.646Z,88.9
2018-01-06T02:07:37.220Z,89
2018-01-06T02:08:17.786Z,88.81
2018-01-06T02:08:58.346Z,88.81
2018-01-06T02:09:38.935Z,88.53
2018-01-06T02:10:19.514Z,89.09
2018-01-06T02:11:00.130Z,88.9
2018-01-06T02:11:40.709Z,88.81
2018-01-06T02:12:21.257Z,89
2018-01-06T02:13:01.851Z,89.09
2018-01-06T02:13:42.417Z,88.34
2018-01-06T02:14:23.022Z,88.62
2018-01-06T02:15:03.600Z,88.81
2018-01-06T02:15:44.170Z,88.53
2018-01-06T02:16:24.744Z,88.43
2018-01-06T02:17:05.307Z,88.24
2018-01-06T02:17:45.909Z,88.53
2018-01-06T02:18:26.467Z,88.53
2018-01-06T02:19:07.035Z,88.62
2018-01-06T02:19:47.626Z,88.24
2018-01-06T02:20:28.194Z,89
2018-01-06T02:21:08.763Z,89.09
2018-01-06T02:21:49.352Z,88.71
2018-01-06T02:22:29.939Z,88.86
2018-01-06T02:23:10.496Z,88.57
2018-01-06T02:23:51.059Z,89.38
2018-01-06T02:24:31.631Z,88.95
2018-01-06T02:25:12.258Z,89.19
2018-01-06T02:25:52.872Z,88.95
2018-01-06T02:26:33.444Z,89.19
2018-01-06T02:27:14.035Z,89.24
2018-01-06T02:27:54.599Z,88.95
2018-01-06T02:28:35.209Z,89.43
2018-01-06T02:29:15.803Z,89.62
2018-01-06T02:29:56.386Z,89.43
2018-01-06T02:30:36.968Z,89.53
2018-01-06T02:31:17.573Z,90
2018-01-06T02:31:58.172Z,89.72
2018-01-06T02:32:38.761Z,89.9
2018-01-06T02:33:19.394Z,89.72
2018-01-06T02:33:59.966Z,89.9
2018-01-06T02:34:40.558Z,89.62
2018-01-06T02:35:21.139Z,89.72
2018-01-06T02:36:01.720Z,89.53
2018-01-06T02:36:42.305Z,90.38
2018-01-06T02:37:22.886Z,90.19
2018-01-06T02:38:03.470Z,89.9
2018-01-06T02:38:44.028Z,90.19
2018-01-06T02:39:24.611Z,90.38
2018-01-06T02:40:05.161Z,90.09
2018-01-06T02:40:45.720Z,90.09
2018-01-06T02:41:26.292Z,90.19
2018-01-06T02:42:06.888Z,90.19
2018-01-06T02:42:47.447Z,89.9
2018-01-06T02:43:28.016Z,89.9
2018-01-06T02:44:08.589Z,90.19
2018-01-06T02:44:49.149Z,90.09
2018-01-06T02:45:29.710Z,90.28
2018-01-06T02:46:10.304Z,89.9
2018-01-06T02:46:50.912Z,90.19
2018-01-06T02:47:31.473Z,90.09
2018-01-06T02:48:12.038Z,90.09
2018-01-06T02:48:52.613Z,90.19
2018-01-06T02:49:33.205Z,89.9
2018-01-06T02:50:13.777Z,90.09
2018-01-06T02:50:54.355Z,90.47
2018-01-06T02:51:34.974Z,89.9
2018-01-06T02:52:15.575Z,90.09
2018-01-06T02:52:56.143Z,90.47
2018-01-06T02:53:36.728Z,89.9
2018-01-06T02:54:17.306Z,90.28
2018-01-06T02:54:57.871Z,90.28
2018-01-06T02:55:38.446Z,90.28
2018-01-06T02:56:19.012Z,90.28
2018-01-06T02:56:59.569Z,90.09
2018-01-06T02:57:40.143Z,90.09
2018-01-06T02:58:20.713Z,90.66
2018-01-06T02:59:01.275Z,90.76
2018-01-06T02:59:41.834Z,91.14
2018-01-06T03:00:22.407Z,90.76
2018-01-06T03:01:03.005Z,90.95
2018-01-06T03:01:43.575Z,90.95
2018-01-06T03:02:24.141Z,90.95
2018-01-06T03:03:04.717Z,90.76
2018-01-06T03:03:45.293Z,90.76
2018-01-06T03:04:25.900Z,91.04
2018-01-06T03:05:06.480Z,91.14
2018-01-06T03:05:47.061Z,91.04
2018-01-06T03:06:27.649Z,90.76
2018-01-06T03:07:08.220Z,90.57
2018-01-06T03:07:48.786Z,91.04
2018-01-06T03:08:29.365Z,90.85
2018-01-06T03:09:09.938Z,90.95
2018-01-06T03:09:50.504Z,90.95
2018-01-06T03:10:31.093Z,90.57
2018-01-06T03:11:11.644Z,90.19
2018-01-06T03:11:52.224Z,90.38
2018-01-06T03:12:32.789Z,90.57
2018-01-06T03:13:13.364Z,90.38
2018-01-06T03:13:53.959Z,90.09
2018-01-06T03:14:34.533Z,90.28
2018-01-06T03:15:15.102Z,90.47
2018-01-06T03:15:55.687Z,90.19
2018-01-06T03:16:36.289Z,90.19
2018-01-06T03:17:16.867Z,90.28
2018-01-06T03:17:57.428Z,90
2018-01-06T03:18:37.996Z,90.38
2018-01-06T03:19:18.574Z,90.19
2018-01-06T03:19:59.178Z,90.19
2018-01-06T03:20:39.754Z,90.47
2018-01-06T03:21:20.330Z,90.38
2018-01-06T03:22:00.896Z,90.76
2018-01-06T03:22:41.473Z,90.57
2018-01-06T03:23:22.036Z,90.57
2018-01-06T03:24:02.596Z,90.95
2018-01-06T03:24:43.192Z,90.76
2018-01-06T03:25:23.751Z,90.85
2018-01-06T03:26:04.338Z,90.47
2018-01-06T03:26:44.927Z,90.85
2018-01-06T03:27:25.497Z,90.66
2018-01-06T03:28:06.091Z,90.57
2018-01-06T03:28:46.678Z,90.95
2018-01-06T03:29:27.268Z,90.95
2018-01-06T03:30:07.841Z,90.85
2018-01-06T03:30:48.428Z,91.24
2018-01-06T03:31:29.036Z,91.14
2018-01-06T03:32:09.607Z,91.42
2018-01-06T03:32:50.176Z,91.14
2018-01-06T03:33:30.790Z,91.42
2018-01-06T03:34:11.371Z,91.61
2018-01-06T03:34:51.951Z,91.52
2018-01-06T03:35:32.545Z,91.66
2018-01-06T03:36:13.136Z,91.56
2018-01-06T03:36:53.724Z,91.56
2018-01-06T03:37:34.309Z,91.75
2018-01-06T03:38:14.890Z,91.66
2018-01-06T03:38:55.473Z,91.85
2018-01-06T03:39:36.069Z,91.85
2018-01-06T03:40:16.686Z,91.56
2018-01-06T03:40:57.257Z,91.28
2018-01-06T03:41:37.921Z,91.56
2018-01-06T03:42:18.506Z,91.85
2018-01-06T03:42:59.156Z,91.66
2018-01-06T03:43:39.745Z,91.75
2018-01-06T03:44:20.330Z,91.38
2018-01-06T03:45:00.897Z,91.56
2018-01-06T03:45:41.459Z,91.47
2018-01-06T03:46:22.028Z,91.75
2018-01-06T03:47:02.613Z,91.75
2018-01-06T03:47:43.177Z,91.85
2018-01-06T03:48:23.761Z,91.85
2018-01-06T03:49:04.351Z,92.33
2018-01-06T03:49:44.944Z,91.85
2018-01-06T03:50:25.550Z,91.94
2018-01-06T03:51:06.144Z,91.56
2018-01-06T03:51:46.789Z,91.56
2018-01-06T03:52:27.379Z,91.38
2018-01-06T03:53:07.941Z,91.56
2018-01-06T03:53:48.515Z,91.28
2018-01-06T03:54:29.101Z,91.94
2018-01-06T03:55:09.676Z,91.71
2018-01-06T03:55:50.241Z,91.47
2018-01-06T03:56:30.859Z,91.56
2018-01-06T03:57:11.425Z,91.8
2018-01-06T03:57:52.004Z,91.89
2018-01-06T03:58:32.615Z,91.8
2018-01-06T03:59:13.206Z,91.99
2018-01-06T03:59:53.781Z,91.85
2018-01-06T04:00:34.365Z,91.85
2018-01-06T04:01:14.946Z,91.89
2018-01-06T04:01:55.522Z,91.8
2018-01-06T04:02:36.119Z,91.71
2018-01-06T04:03:16.694Z,91.42
2018-01-06T04:03:57.280Z,91.8
2018-01-06T04:04:37.866Z,91.71
2018-01-06T04:05:18.464Z,91.61
2018-01-06T04:05:59.049Z,91.61
2018-01-06T04:06:39.672Z,91.8
2018-01-06T04:07:20.225Z,91.8
2018-01-06T04:08:00.816Z,91.33
2018-01-06T04:08:41.414Z,91.14
2018-01-06T04:09:22.007Z,91.14
2018-01-06T04:10:02.583Z,91.24
2018-01-06T04:10:43.160Z,91.14
2018-01-06T04:11:23.768Z,91.42
2018-01-06T04:12:04.355Z,90.76
2018-01-06T04:12:44.937Z,90.95
2018-01-06T04:13:25.510Z,90.66
2018-01-06T04:14:06.070Z,90.57
2018-01-06T04:14:46.676Z,90.95
2018-01-06T04:15:27.267Z,90.76
2018-01-06T04:16:07.866Z,90.95
2018-01-06T04:16:48.470Z,90.38
2018-01-06T04:17:29.001Z,90.38
2018-01-06T04:18:09.618Z,90.38
2018-01-06T04:18:50.208Z,90.76
2018-01-06T04:19:30.778Z,90.66
2018-01-06T04:20:11.357Z,90.47
2018-01-06T04:20:51.919Z,90.66
2018-01-06T04:21:32.482Z,90.38
2018-01-06T04:22:13.051Z,90.09
2018-01-06T04:22:53.630Z,90.47
2018-01-06T04:23:34.244Z,90.28
2018-01-06T04:24:14.843Z,90.09
2018-01-06T04:24:55.420Z,89.9
2018-01-06T04:25:36.040Z,90.09
2018-01-06T04:26:16.598Z,90.09
2018-01-06T04:26:57.159Z,90.28
2018-01-06T04:27:37.717Z,90.09
2018-01-06T04:28:18.303Z,90.09
2018-01-06T04:28:58.932Z,90.19
2018-01-06T04:29:39.525Z,90.09
2018-01-06T04:30:20.101Z,90.09
2018-01-06T04:31:00.677Z,90.09
2018-01-06T04:31:41.246Z,89.9
2018-01-06T04:32:21.816Z,89.9
2018-01-06T04:33:02.381Z,89.81
2018-01-06T04:33:42.980Z,90.09
2018-01-06T04:34:23.559Z,90.28
2018-01-06T04:35:04.134Z,89.9
2018-01-06T04:35:44.734Z,89.9
2018-01-06T04:36:25.341Z,90.09
2018-01-06T04:37:05.907Z,90
2018-01-06T04:37:46.484Z,89.9
2018-01-06T04:38:27.083Z,89.81
2018-01-06T04:39:07.669Z,90
2018-01-06T04:39:48.262Z,90.09
2018-01-06T04:40:28.838Z,90.09
2018-01-06T04:41:09.406Z,89.9
2018-01-06T04:41:49.954Z,89.81
2018-01-06T04:42:30.547Z,90.09
2018-01-06T04:43:11.139Z,90.09
2018-01-06T04:43:51.716Z,90
2018-01-06T04:44:32.301Z,90.28
2018-01-06T04:45:12.874Z,90.28
2018-01-06T04:45:53.433Z,90.09
2018-01-06T04:46:34.020Z,89.72
2018-01-06T04:47:14.577Z,90.28
2018-01-06T04:47:55.211Z,89.9
2018-01-06T04:48:35.774Z,90.09
2018-01-06T04:49:16.359Z,90.47
2018-01-06T04:49:56.936Z,89.9
2018-01-06T04:50:37.521Z,89.9
2018-01-06T04:51:18.093Z,89.9
2018-01-06T04:51:58.673Z,90.28
2018-01-06T04:52:39.291Z,90.09
2018-01-06T04:53:19.906Z,90.28
2018-01-06T04:54:00.494Z,90.47
2018-01-06T04:54:41.094Z,90.09
2018-01-06T04:55:21.656Z,89.9
2018-01-06T04:56:02.213Z,90.19
2018-01-06T04:56:42.776Z,90.19
2018-01-06T04:57:23.378Z,90.28
2018-01-06T04:58:03.962Z,90.19
2018-01-06T04:58:44.554Z,89.81
2018-01-06T04:59:25.132Z,90.09
2018-01-06T05:00:05.696Z,90.09
2018-01-06T05:00:46.256Z,90.09
2018-01-06T05:01:26.841Z,89.9
2018-01-06T05:02:07.451Z,89.81
2018-01-06T05:02:48.015Z,90.19
2018-01-06T05:03:28.596Z,90.09
2018-01-06T05:04:09.174Z,90.19
2018-01-06T05:04:49.729Z,89.9
2018-01-06T05:05:30.347Z,89.9
2018-01-06T05:06:10.941Z,90.19
2018-01-06T05:06:51.517Z,89.72
2018-01-06T05:07:32.097Z,90
2018-01-06T05:08:12.732Z,90.09
2018-01-06T05:08:53.316Z,89.9
2018-01-06T05:09:33.903Z,90.28
2018-01-06T05:10:14.455Z,89.9
2018-01-06T05:10:55.037Z,89.9
2018-01-06T05:11:35.608Z,90.47
2018-01-06T05:12:16.244Z,90.19
2018-01-06T05:12:56.865Z,90.09
2018-01-06T05:13:37.438Z,89.9
2018-01-06T05:14:18.020Z,90.09
2018-01-06T05:14:58.604Z,90.09
2018-01-06T05:15:39.203Z,89.81
2018-01-06T05:16:19.800Z,89.72
2018-01-06T05:17:00.412Z,90.28
2018-01-06T05:17:41.019Z,90.19
2018-01-06T05:18:21.619Z,90.19
2018-01-06T05:19:02.170Z,89.62
2018-01-06T05:19:42.746Z,90.09
2018-01-06T05:20:23.322Z,89.9
2018-01-06T05:21:03.899Z,90.19
2018-01-06T05:21:44.525Z,90.09
2018-01-06T05:22:25.097Z,90.28
2018-01-06T05:23:05.680Z,90.09
2018-01-06T05:23:46.248Z,90.19
2018-01-06T05:24:26.823Z,90.09
2018-01-06T05:25:07.390Z,89.9
2018-01-06T05:25:47.964Z,89.81
2018-01-06T05:26:28.507Z,90.09
2018-01-06T05:27:09.088Z,90.47
2018-01-06T05:27:49.658Z,90.47
2018-01-06T05:28:30.243Z,90.19
2018-01-06T05:29:10.813Z,90.09
2018-01-06T05:29:51.365Z,89.9
2018-01-06T05:30:31.939Z,90.09
2018-01-06T05:31:12.558Z,90.47
2018-01-06T05:31:53.140Z,90.38
2018-01-06T05:32:33.773Z,90.19
2018-01-06T05:33:14.343Z,90.38
2018-01-06T05:33:54.919Z,90.47
2018-01-06T05:34:35.514Z,90.19
2018-01-06T05:35:16.124Z,90.28
2018-01-06T05:35:56.732Z,89.81
2018-01-06T05:36:37.330Z,90.38
2018-01-06T05:37:17.892Z,90.19
2018-01-06T05:37:58.466Z,90.09
2018-01-06T05:38:39.050Z,90.28
2018-01-06T05:39:19.621Z,90.38
2018-01-06T05:40:00.261Z,90.47
2018-01-06T05:40:40.835Z,90.66
2018-01-06T05:41:21.401Z,90.38
2018-01-06T05:42:01.994Z,90.38
2018-01-06T05:42:42.561Z,90.19
2018-01-06T05:43:23.141Z,90.57
2018-01-06T05:44:03.738Z,90.76
2018-01-06T05:44:44.347Z,90.19
2018-01-06T05:45:24.940Z,90.47
2018-01-06T05:46:05.555Z,90.38
2018-01-06T05:46:46.100Z,90.76
2018-01-06T05:47:26.699Z,90.47
2018-01-06T05:48:07.322Z,90.28
2018-01-06T05:48:47.895Z,90.19
2018-01-06T05:49:28.452Z,90.85
2018-01-06T05:50:09.068Z,90.47
2018-01-06T05:50:49.637Z,90.57
2018-01-06T05:51:30.225Z,91.14
2018-01-06T05:52:10.799Z,90.95
2018-01-06T05:52:51.376Z,90.85
2018-01-06T05:53:31.979Z,90.85
2018-01-06T05:54:12.587Z,90.95
2018-01-06T05:54:53.147Z,90.76
2018-01-06T05:55:33.736Z,90.47
2018-01-06T05:56:14.290Z,90.66
2018-01-06T05:56:54.918Z,90.47
2018-01-06T05:57:35.475Z,90.47
2018-01-06T05:58:16.046Z,90.57
2018-01-06T05:58:56.675Z,90.66
2018-01-06T05:59:37.287Z,91.04
2018-01-06T06:00:17.880Z,91.04
2018-01-06T06:00:58.451Z,91.42
2018-01-06T06:01:39.018Z,91.24
2018-01-06T06:02:19.614Z,91.42
2018-01-06T06:03:00.177Z,91.24
2018-01-06T06:03:40.765Z,91.14
2018-01-06T06:04:21.349Z,91.04
2018-01-06T06:05:01.917Z,91.42
2018-01-06T06:05:42.539Z,91.42
2018-01-06T06:06:23.100Z,91.14
2018-01-06T06:07:03.760Z,91.42
2018-01-06T06:07:44.330Z,91.24
2018-01-06T06:08:24.907Z,91.33
2018-01-06T06:09:05.504Z,91.04
2018-01-06T06:09:46.097Z,90.95
2018-01-06T06:10:26.668Z,91.33
2018-01-06T06:11:07.243Z,91.24
2018-01-06T06:11:47.887Z,91.33
2018-01-06T06:12:28.448Z,90.66
2018-01-06T06:13:09.055Z,90.95
2018-01-06T06:13:49.587Z,90.95
2018-01-06T06:14:30.161Z,91.14
2018-01-06T06:15:10.728Z,90.76
2018-01-06T06:15:51.327Z,90.76
2018-01-06T06:16:31.909Z,90.57
2018-01-06T06:17:12.499Z,90.47
2018-01-06T06:17:53.066Z,90.66
2018-01-06T06:18:33.653Z,90.76
2018-01-06T06:19:14.243Z,90.85
2018-01-06T06:19:54.809Z,90.76
2018-01-06T06:20:35.372Z,91.14
2018-01-06T06:21:15.946Z,91.42
2018-01-06T06:21:56.544Z,91.42
2018-01-06T06:22:37.111Z,91.14
2018-01-06T06:23:17.678Z,91.42
2018-01-06T06:23:58.246Z,91.33
2018-01-06T06:24:38.818Z,90.95
2018-01-06T06:25:19.552Z,91.14
2018-01-06T06:26:00.044Z,90.95
2018-01-06T06:26:40.628Z,90.95
2018-01-06T06:27:21.353Z,91.04
2018-01-06T06:28:01.978Z,90.95
2018-01-06T06:28:42.557Z,90.85
2018-01-06T06:29:23.124Z,90.47
2018-01-06T06:30:03.748Z,90.66
2018-01-06T06:30:44.318Z,90.95
2018-01-06T06:31:24.903Z,90.76
2018-01-06T06:32:05.530Z,90.57
2018-01-06T06:32:46.120Z,90.95
2018-01-06T06:33:26.694Z,90.66
2018-01-06T06:34:07.287Z,90.85
2018-01-06T06:34:47.858Z,90.47
2018-01-06T06:35:28.446Z,90.66
2018-01-06T06:36:09.016Z,91.33
2018-01-06T06:36:49.570Z,90.95
2018-01-06T06:37:30.163Z,91.33
2018-01-06T06:38:10.741Z,91.33
2018-01-06T06:38:51.327Z,91.33
2018-01-06T06:39:31.900Z,90.76
2018-01-06T06:40:12.480Z,90.76
2018-01-06T06:40:53.090Z,91.42
2018-01-06T06:41:33.659Z,91.33
2018-01-06T06:42:14.241Z,90.95
2018-01-06T06:42:54.809Z,91.14
2018-01-06T06:43:35.469Z,91.42
2018-01-06T06:44:16.044Z,91.14
2018-01-06T06:44:56.696Z,91.42
2018-01-06T06:45:37.294Z,91.52
2018-01-06T06:46:17.900Z,91.52
2018-01-06T06:46:58.479Z,91.52
2018-01-06T06:47:39.044Z,91.61
2018-01-06T06:48:19.628Z,91.61
2018-01-06T06:49:00.268Z,91.42
2018-01-06T06:49:40.858Z,91.24
2018-01-06T06:50:21.410Z,91.8
2018-01-06T06:51:01.977Z,91.52
2018-01-06T06:51:42.539Z,91.42
2018-01-06T06:52:23.152Z,91.52
2018-01-06T06:53:03.718Z,91.61
2018-01-06T06:53:44.339Z,91.61
2018-01-06T06:54:24.917Z,91.61
2018-01-06T06:55:05.532Z,91.71
2018-01-06T06:55:46.112Z,91.52
2018-01-06T06:56:26.707Z,91.61
2018-01-06T06:57:07.283Z,91.52
2018-01-06T06:57:47.841Z,91.56
2018-01-06T06:58:28.436Z,91.56
2018-01-06T06:59:09.001Z,91.47
2018-01-06T06:59:49.577Z,91.56
2018-01-06T07:00:30.171Z,91.47
2018-01-06T07:01:10.744Z,92.09
2018-01-06T07:01:51.325Z,91.56
2018-01-06T07:02:31.908Z,91.47
2018-01-06T07:03:12.493Z,91.56
2018-01-06T07:03:53.075Z,91.56
2018-01-06T07:04:33.633Z,91.99
2018-01-06T07:05:14.211Z,91.42
2018-01-06T07:05:54.765Z,91.71
2018-01-06T07:06:35.345Z,91.42
2018-01-06T07:07:15.923Z,91.56
2018-01-06T07:07:56.479Z,91.8
2018-01-06T07:08:37.093Z,91.52
2018-01-06T07:09:17.706Z,91.56
2018-01-06T07:09:58.298Z,91.8
2018-01-06T07:10:38.883Z,91.61
2018-01-06T07:11:19.469Z,91.61
2018-01-06T07:12:00.030Z,91.61
2018-01-06T07:12:40.616Z,91.56
2018-01-06T07:13:21.204Z,91.71
2018-01-06T07:14:01.798Z,91.61
2018-01-06T07:14:42.392Z,91.61
2018-01-06T07:15:22.950Z,91.89
2018-01-06T07:16:03.526Z,91.89
2018-01-06T07:16:44.095Z,91.89
2018-01-06T07:17:24.677Z,91.61
2018-01-06T07:18:05.241Z,91.52
2018-01-06T07:18:45.796Z,91.14
2018-01-06T07:19:26.362Z,91.42
2018-01-06T07:20:06.934Z,91.24
2018-01-06T07:20:47.510Z,91.42
2018-01-06T07:23:00.629Z,91.24
2018-01-06T07:23:41.204Z,91.42
2018-01-06T07:24:21.783Z,91.33
2018-01-06T07:25:02.354Z,91.33
2018-01-06T07:27:00.187Z,91.33
2018-01-06T07:27:40.758Z,91.24
2018-01-06T07:28:21.326Z,91.42
2018-01-06T07:29:01.929Z,91.42
2018-01-06T07:29:42.614Z,90.95
2018-01-06T07:30:23.166Z,90.95
2018-01-06T07:31:03.763Z,90.76
2018-01-06T07:31:44.328Z,90.76
2018-01-06T07:32:24.901Z,90.85
2018-01-06T07:33:05.504Z,90.85
2018-01-06T07:33:46.066Z,90.76
2018-01-06T07:34:26.622Z,90.76
2018-01-06T07:35:07.213Z,90.66
2018-01-06T07:35:47.802Z,90.76
2018-01-06T07:36:28.394Z,90.66
2018-01-06T07:37:08.955Z,90.95
2018-01-06T07:37:49.617Z,90.76
2018-01-06T07:38:30.209Z,90.76
2018-01-06T07:39:10.782Z,90.76
2018-01-06T07:39:51.350Z,90.76
2018-01-06T07:40:32.043Z,90.76
2018-01-06T07:41:12.624Z,90.95
2018-01-06T07:41:53.233Z,90.76
2018-01-06T07:42:33.796Z,90.85
2018-01-06T07:43:14.892Z,90.95
2018-01-06T07:43:55.934Z,90.57
2018-01-06T07:44:36.537Z,90.38
2018-01-06T07:45:17.456Z,90.57
2018-01-06T07:45:58.454Z,90.38
2018-01-06T07:46:39.117Z,90.76
2018-01-06T07:47:19.902Z,90.28
2018-01-06T07:48:00.837Z,90.38
2018-01-06T07:48:41.529Z,90.28
2018-01-06T07:49:22.265Z,90.38
2018-01-06T07:50:03.034Z,90.47
2018-01-06T07:50:44.123Z,90.57
2018-01-06T07:51:25.070Z,90.19
2018-01-06T07:52:06.310Z,90.47
2018-01-06T07:52:47.434Z,90.19
2018-01-06T07:53:28.279Z,90.38
2018-01-06T07:54:09.417Z,90.28
2018-01-06T07:54:50.341Z,90.38
2018-01-06T07:55:30.984Z,90.09
2018-01-06T07:56:11.755Z,90.09
2018-01-06T07:56:52.504Z,89.9
2018-01-06T07:57:33.135Z,90.19
2018-01-06T07:58:13.822Z,90.09
2018-01-06T07:58:55.008Z,90.09
2018-01-06T07:59:35.846Z,90.09
2018-01-06T08:00:16.594Z,90.09
2018-01-06T08:00:58.103Z,90
2018-01-06T08:01:39.122Z,89.9
2018-01-06T08:02:20.051Z,90.19
2018-01-06T08:03:01.084Z,90.38
2018-01-06T08:03:42.161Z,90.38
2018-01-06T08:04:22.855Z,90.28
2018-01-06T08:05:03.448Z,89.62
2018-01-06T08:05:44.287Z,89.53
2018-01-06T08:06:24.974Z,89.72
2018-01-06T08:07:05.827Z,89.81
2018-01-06T08:07:47.184Z,89.81
2018-01-06T08:08:28.071Z,90.47
2018-01-06T08:09:08.748Z,90.09
2018-01-06T08:09:49.613Z,90.19
2018-01-06T08:10:30.256Z,90.28
2018-01-06T08:11:11.391Z,90.28
2018-01-06T08:11:52.336Z,90.09
2018-01-06T08:12:32.900Z,89.53
2018-01-06T08:13:13.564Z,89.72
2018-01-06T08:13:54.453Z,89.62
2018-01-06T08:14:35.228Z,89.62
2018-01-06T08:15:15.784Z,89.72
2018-01-06T08:15:56.344Z,89.72
2018-01-06T08:16:37.400Z,89.53
2018-01-06T08:17:18.324Z,89.72
2018-01-06T08:17:59.121Z,89.72
2018-01-06T08:18:39.700Z,89.62
2018-01-06T08:19:20.257Z,89.9
2018-01-06T08:20:00.867Z,89.72
2018-01-06T08:20:41.439Z,89.9
2018-01-06T08:21:22.014Z,89.9
2018-01-06T08:22:02.594Z,89.9
2018-01-06T08:22:43.169Z,89.81
2018-01-06T08:23:23.925Z,89.43
2018-01-06T08:24:04.477Z,89.05
2018-01-06T08:24:45.232Z,89.05
2018-01-06T08:25:25.812Z,89.24
2018-01-06T08:26:06.447Z,89.14
2018-01-06T08:26:47.067Z,89.24
2018-01-06T08:27:27.627Z,89.33
2018-01-06T08:28:08.196Z,89.14
2018-01-06T08:28:48.782Z,89.05
2018-01-06T08:29:29.410Z,89.14
2018-01-06T08:30:10.000Z,89.24
2018-01-06T08:30:50.595Z,89.05
2018-01-06T08:31:31.231Z,89.14
2018-01-06T08:32:11.784Z,89.24
2018-01-06T08:32:52.403Z,88.67
2018-01-06T08:33:32.956Z,88.57
2018-01-06T08:34:13.565Z,88.76
2018-01-06T08:34:54.193Z,88.86
2018-01-06T08:35:34.743Z,89.05
2018-01-06T08:36:15.309Z,89.05
2018-01-06T08:36:55.891Z,88.86
2018-01-06T08:37:36.470Z,89.05
2018-01-06T08:38:17.055Z,89
2018-01-06T08:38:57.638Z,88.15
2018-01-06T08:39:38.216Z,88.34
2018-01-06T08:40:18.784Z,88.71
2018-01-06T08:40:59.408Z,88.39
2018-01-06T08:41:39.947Z,88.76
2018-01-06T08:42:20.546Z,88.62
2018-01-06T08:43:01.119Z,88.43
2018-01-06T08:43:41.684Z,88.9
2018-01-06T08:44:22.301Z,88.24
2018-01-06T08:45:02.876Z,88.05
2018-01-06T08:45:43.446Z,88.05
2018-01-06T08:46:24.016Z,88.05
2018-01-06T08:47:04.597Z,88.43
2018-01-06T08:47:45.157Z,88.15
2018-01-06T08:48:25.755Z,88.34
2018-01-06T08:49:06.401Z,87.76